Terminal Aerodrome Forecast
Issued by NWS Wilmington, OH

Current Version | Previous Version | Graphics & Text | Print | Product List | Glossary On
Versions: 1 2 3 4 5 6 7 8 9 10 11 12 13 14 15 16 17 18 19 20 21 22 23 24
000
FTUS41 KILN 301139
TAFILN
TAF
KILN 301139Z 3012/0112 05008KT P6SM OVC070
     FM301500 10009KT 4SM -SHRA BR OVC025
     FM301800 11012G21KT 2SM -SHRA BR OVC015
     FM302200 15014G24KT 3SM -SHRA BR OVC008
     FM010400 19010KT 5SM BR VCSH OVC012=

USA.gov is the U.S. government's official web portal to all federal, state and local government web resources and services.